Time;durP1;ratioP1;P1;durP2;ratioP2;P2;SDS_P1;SDS_P2;PMS_P1;PMS_P2;Temp;Humidity;BMP_temperature;BMP_pressure;BME280_temperature;BME280_humidity;BME280_pressure;Samples;Min_cycle;Max_cycle;Signal;HPM_P1;HPM_P2
2022/04/16 00:01:23;;;;;;;;;;;16.10;64.10;;;;;;4994404;28;20371;-60
2022/04/16 00:03:49;;;;;;;;;;;16.30;64.60;;;;;;4994571;28;19914;-59
2022/04/16 00:06:14;;;;;;;;;;;16.20;65.40;;;;;;4994784;28;19933;-60
2022/04/16 00:08:40;;;;;;;;;;;16.20;65.60;;;;;;4994307;28;19918;-60
2022/04/16 00:11:06;;;;;;;;;;;16.00;65.60;;;;;;4994343;28;19909;-59
2022/04/16 00:13:32;;;;;;;;;;;15.90;67.00;;;;;;4994344;28;19998;-59
2022/04/16 00:15:58;;;;;;;;;;;15.90;67.20;;;;;;4994449;28;19936;-62
2022/04/16 00:18:24;;;;;;;;;;;15.90;66.90;;;;;;4994123;28;19937;-59
2022/04/16 00:20:49;;;;;;;;;;;15.90;67.60;;;;;;4994445;28;20016;-60
2022/04/16 00:23:16;;;;;;;;;;;15.80;68.60;;;;;;4994182;28;20005;-60
2022/04/16 00:25:43;;;;;;;;;;;15.90;67.80;;;;;;4994332;28;19937;-59
2022/04/16 00:28:08;;;;;;;;;;;15.70;68.30;;;;;;4993998;28;19968;-59
2022/04/16 00:30:39;;;;;;;;;;;15.70;69.60;;;;;;4994619;28;20354;-59
2022/04/16 00:33:07;;;;;;;;;;;15.70;68.40;;;;;;4994325;28;19913;-60
2022/04/16 00:35:33;;;;;;;;;;;15.60;68.60;;;;;;4994483;28;19909;-60
2022/04/16 00:37:59;;;;;;;;;;;15.70;67.30;;;;;;4994243;28;19937;-59
2022/04/16 00:40:24;;;;;;;;;;;15.70;67.30;;;;;;4994665;28;20281;-59
2022/04/16 00:42:50;;;;;;;;;;;15.90;66.10;;;;;;4994104;28;19910;-59
2022/04/16 00:45:16;;;;;;;;;;;16.00;65.80;;;;;;4994655;28;19917;-59
2022/04/16 00:47:41;;;;;;;;;;;15.90;66.50;;;;;;4998229;28;19921;-59
2022/04/16 00:50:08;;;;;;;;;;;15.90;66.60;;;;;;4998543;28;19909;-59
2022/04/16 00:52:34;;;;;;;;;;;16.00;63.80;;;;;;4998153;28;19956;-59
2022/04/16 00:55:00;;;;;;;;;;;16.20;62.60;;;;;;4998002;28;19910;-59
2022/04/16 00:57:25;;;;;;;;;;;16.30;62.70;;;;;;4997939;28;20361;-59
2022/04/16 00:59:51;;;;;;;;;;;16.30;62.20;;;;;;4998274;28;19944;-59
2022/04/16 01:02:17;;;;;;;;;;;16.40;61.60;;;;;;4997787;28;19914;-59
2022/04/16 01:04:43;;;;;;;;;;;16.40;61.90;;;;;;4997881;28;19913;-59
2022/04/16 01:07:09;;;;;;;;;;;16.50;61.20;;;;;;4997840;28;19918;-60
2022/04/16 01:09:35;;;;;;;;;;;16.50;61.00;;;;;;4998044;28;19953;-59
2022/04/16 01:12:01;;;;;;;;;;;16.50;61.00;;;;;;4997841;28;19964;-59
2022/04/16 01:14:29;;;;;;;;;;;16.60;61.40;;;;;;4997897;28;19964;-60
2022/04/16 01:16:56;;;;;;;;;;;16.60;61.10;;;;;;4997728;28;19917;-59
2022/04/16 01:19:22;;;;;;;;;;;16.60;61.30;;;;;;4997611;28;19921;-59
2022/04/16 01:21:47;;;;;;;;;;;16.50;61.30;;;;;;4997579;28;20281;-59
2022/04/16 01:24:14;;;;;;;;;;;16.60;61.10;;;;;;4997720;28;19910;-59
2022/04/16 01:26:41;;;;;;;;;;;16.60;61.10;;;;;;4997567;28;19932;-59
2022/04/16 01:29:08;;;;;;;;;;;16.70;60.50;;;;;;4997512;28;20385;-59
2022/04/16 01:31:33;;;;;;;;;;;16.80;60.70;;;;;;4997375;28;19910;-60
2022/04/16 01:33:59;;;;;;;;;;;16.80;60.70;;;;;;4997742;28;20004;-59
2022/04/16 01:36:29;;;;;;;;;;;16.70;60.50;;;;;;4997526;28;19956;-59
2022/04/16 01:38:58;;;;;;;;;;;16.70;60.90;;;;;;4997447;28;19925;-59
2022/04/16 01:41:24;;;;;;;;;;;16.60;61.20;;;;;;4997230;28;19921;-60
2022/04/16 01:43:50;;;;;;;;;;;16.50;60.90;;;;;;4997549;28;19906;-59
2022/04/16 01:46:15;;;;;;;;;;;16.50;61.30;;;;;;4997261;28;20353;-59
2022/04/16 01:48:41;;;;;;;;;;;16.50;61.40;;;;;;4997008;28;20331;-59
2022/04/16 01:51:07;;;;;;;;;;;16.50;62.20;;;;;;4997006;28;19925;-60
2022/04/16 01:53:33;;;;;;;;;;;16.50;62.10;;;;;;4997076;28;19914;-59
2022/04/16 01:55:58;;;;;;;;;;;16.50;62.00;;;;;;4996700;28;19925;-61
2022/04/16 01:58:25;;;;;;;;;;;16.50;62.20;;;;;;4996744;28;19910;-59
2022/04/16 02:00:50;;;;;;;;;;;16.50;62.30;;;;;;4996865;28;19917;-59
2022/04/16 02:03:16;;;;;;;;;;;16.50;62.60;;;;;;4996961;28;19909;-59
2022/04/16 02:05:42;;;;;;;;;;;16.50;62.50;;;;;;4996821;28;19932;-59
2022/04/16 02:08:08;;;;;;;;;;;16.50;62.80;;;;;;4996483;28;20374;-59
2022/04/16 02:10:35;;;;;;;;;;;16.40;63.10;;;;;;4996541;28;20358;-59
2022/04/16 02:13:01;;;;;;;;;;;16.40;63.40;;;;;;4996450;28;20321;-59
2022/04/16 02:15:27;;;;;;;;;;;16.50;63.00;;;;;;4997113;28;19914;-59
2022/04/16 02:17:54;;;;;;;;;;;16.60;63.10;;;;;;4996587;28;19929;-59
2022/04/16 02:20:23;;;;;;;;;;;16.70;62.90;;;;;;4996626;28;19913;-59
2022/04/16 02:22:48;;;;;;;;;;;16.70;62.80;;;;;;4996187;28;19921;-59
2022/04/16 02:25:16;;;;;;;;;;;16.60;63.00;;;;;;4996391;28;19914;-59
2022/04/16 02:27:42;;;;;;;;;;;16.70;62.70;;;;;;4996055;28;19965;-59
2022/04/16 02:30:09;;;;;;;;;;;16.80;62.50;;;;;;4996486;28;19929;-59
2022/04/16 02:32:38;;;;;;;;;;;16.70;62.80;;;;;;4996295;28;20015;-61
2022/04/16 02:35:05;;;;;;;;;;;16.60;63.10;;;;;;4996299;28;19910;-59
2022/04/16 02:37:31;;;;;;;;;;;16.50;63.60;;;;;;4996014;28;19910;-59
2022/04/16 02:39:56;;;;;;;;;;;16.40;63.70;;;;;;4996508;28;19917;-59
2022/04/16 02:42:22;;;;;;;;;;;16.50;64.10;;;;;;4996043;28;20000;-59
2022/04/16 02:47:31;;;;;;;;;;;16.40;64.30;;;;;;4995948;28;19924;-59
2022/04/16 02:49:57;;;;;;;;;;;16.40;64.30;;;;;;4996009;28;19913;-59
2022/04/16 02:52:23;;;;;;;;;;;16.40;64.80;;;;;;4996054;28;19918;-59
2022/04/16 02:54:48;;;;;;;;;;;16.30;65.00;;;;;;4995802;28;19949;-59
2022/04/16 02:57:14;;;;;;;;;;;16.30;65.00;;;;;;4995858;28;19919;-59
2022/04/16 02:59:40;;;;;;;;;;;16.20;65.30;;;;;;4995767;28;19909;-59
2022/04/16 03:02:05;;;;;;;;;;;16.30;65.40;;;;;;4995565;28;20010;-59
2022/04/16 03:04:32;;;;;;;;;;;16.20;65.70;;;;;;4995561;28;19910;-59
2022/04/16 03:06:58;;;;;;;;;;;16.10;66.20;;;;;;4995786;28;19910;-59
2022/04/16 03:09:23;;;;;;;;;;;16.00;66.70;;;;;;4994839;28;20318;-59
2022/04/16 03:11:49;;;;;;;;;;;15.90;67.00;;;;;;4995441;28;19910;-59
2022/04/16 03:19:45;;;;;;;;;;;15.80;67.20;;;;;;4995198;28;20003;-59
2022/04/16 03:22:11;;;;;;;;;;;15.90;66.70;;;;;;4995298;28;19917;-59
2022/04/16 03:24:36;;;;;;;;;;;15.80;67.10;;;;;;4995332;28;20423;-59
2022/04/16 03:27:02;;;;;;;;;;;15.80;67.10;;;;;;4995422;28;19910;-59
2022/04/16 03:29:28;;;;;;;;;;;15.70;67.50;;;;;;4994974;28;19922;-59
2022/04/16 03:31:53;;;;;;;;;;;15.70;67.60;;;;;;4994895;28;19914;-59
2022/04/16 03:34:19;;;;;;;;;;;15.60;67.50;;;;;;4995193;28;19910;-59
2022/04/16 03:36:44;;;;;;;;;;;15.60;67.10;;;;;;4995448;28;19916;-60
2022/04/16 03:39:10;;;;;;;;;;;15.60;67.10;;;;;;4995072;28;19949;-60
2022/04/16 03:41:36;;;;;;;;;;;15.60;67.10;;;;;;4994920;28;19913;-59
2022/04/16 03:44:02;;;;;;;;;;;15.70;66.40;;;;;;4994746;28;19910;-59
2022/04/16 03:46:27;;;;;;;;;;;15.70;66.30;;;;;;4994835;28;19937;-59
2022/04/16 03:48:53;;;;;;;;;;;15.70;66.20;;;;;;4994814;28;19918;-59
2022/04/16 03:51:18;;;;;;;;;;;15.70;65.90;;;;;;4994904;28;19914;-59
2022/04/16 03:53:44;;;;;;;;;;;15.70;66.10;;;;;;4994942;28;19909;-59
2022/04/16 04:01:38;;;;;;;;;;;15.60;67.50;;;;;;4994849;28;19912;-59
2022/04/16 04:04:04;;;;;;;;;;;15.60;67.60;;;;;;4994458;28;19965;-59
2022/04/16 04:06:30;;;;;;;;;;;15.60;67.60;;;;;;4994506;28;19914;-59
2022/04/16 04:08:55;;;;;;;;;;;15.50;67.80;;;;;;4994418;28;19968;-59
2022/04/16 04:11:21;;;;;;;;;;;15.50;67.70;;;;;;4994448;28;20555;-59
2022/04/16 04:13:46;;;;;;;;;;;15.50;67.60;;;;;;4994802;28;19909;-59
2022/04/16 04:16:12;;;;;;;;;;;15.40;68.20;;;;;;4994999;28;19910;-59
2022/04/16 04:18:37;;;;;;;;;;;15.40;68.70;;;;;;4994236;28;19922;-59
2022/04/16 04:21:03;;;;;;;;;;;15.30;68.00;;;;;;4994326;28;19917;-62
2022/04/16 04:23:28;;;;;;;;;;;15.40;67.90;;;;;;4994120;28;19988;-59
2022/04/16 04:25:54;;;;;;;;;;;15.40;67.70;;;;;;4994278;28;20000;-59
2022/04/16 04:28:20;;;;;;;;;;;15.30;67.90;;;;;;4994057;28;19923;-60
2022/04/16 04:30:45;;;;;;;;;;;15.30;67.80;;;;;;4994150;28;19910;-60
2022/04/16 04:33:11;;;;;;;;;;;15.30;67.60;;;;;;4994085;28;19917;-59
2022/04/16 04:35:36;;;;;;;;;;;15.30;67.50;;;;;;4994585;28;19980;-59
2022/04/16 04:38:02;;;;;;;;;;;15.30;67.40;;;;;;4994196;28;19917;-59
2022/04/16 04:40:29;;;;;;;;;;;15.20;67.50;;;;;;4994274;28;19914;-59
2022/04/16 04:42:54;;;;;;;;;;;15.00;67.90;;;;;;4994290;28;19913;-59
2022/04/16 04:45:20;;;;;;;;;;;15.00;68.30;;;;;;4994375;28;20269;-59
2022/04/16 04:47:45;;;;;;;;;;;15.00;68.10;;;;;;4994480;28;20267;-59
2022/04/16 04:50:11;;;;;;;;;;;15.10;67.20;;;;;;4994392;28;19910;-59
2022/04/16 04:52:38;;;;;;;;;;;15.10;66.80;;;;;;4994353;28;19909;-60
2022/04/16 04:55:06;;;;;;;;;;;15.10;66.90;;;;;;4994223;28;19937;-59
2022/04/16 04:57:31;;;;;;;;;;;15.20;66.20;;;;;;4994668;28;20334;-59
2022/04/16 04:59:57;;;;;;;;;;;15.30;65.90;;;;;;4994693;28;19987;-59
2022/04/16 05:02:22;;;;;;;;;;;15.20;65.50;;;;;;4994372;28;19957;-59
2022/04/16 05:04:48;;;;;;;;;;;15.30;65.90;;;;;;4993133;28;20254;-59
2022/04/16 05:07:14;;;;;;;;;;;15.20;65.20;;;;;;4994232;28;19910;-59
2022/04/16 05:09:39;;;;;;;;;;;15.20;65.00;;;;;;4993847;28;19918;-59
2022/04/16 05:12:05;;;;;;;;;;;15.10;65.40;;;;;;4993931;28;20438;-59
2022/04/16 05:14:31;;;;;;;;;;;15.00;65.40;;;;;;4994106;28;19913;-59
2022/04/16 05:16:57;;;;;;;;;;;15.00;65.40;;;;;;4994242;28;19997;-59
2022/04/16 05:19:23;;;;;;;;;;;15.10;65.00;;;;;;4993811;28;20016;-59
2022/04/16 05:21:48;;;;;;;;;;;15.10;64.90;;;;;;4993842;28;20017;-59
2022/04/16 05:24:14;;;;;;;;;;;15.10;64.60;;;;;;4993846;28;20008;-59
2022/04/16 05:26:39;;;;;;;;;;;15.10;64.40;;;;;;4994395;28;20358;-59
2022/04/16 05:29:05;;;;;;;;;;;15.10;63.90;;;;;;4994940;28;20317;-58
2022/04/16 05:31:31;;;;;;;;;;;15.20;63.60;;;;;;4993625;28;20008;-59
2022/04/16 05:36:42;;;;;;;;;;;15.30;63.10;;;;;;4997844;28;19917;-59
2022/04/16 05:39:07;;;;;;;;;;;15.30;63.00;;;;;;4997386;28;19988;-59
2022/04/16 05:41:33;;;;;;;;;;;15.30;63.00;;;;;;4997366;28;20330;-59
2022/04/16 05:43:59;;;;;;;;;;;15.30;62.50;;;;;;4997267;28;19918;-59
2022/04/16 05:46:25;;;;;;;;;;;15.30;62.60;;;;;;4996909;28;20008;-58
2022/04/16 05:48:50;;;;;;;;;;;15.30;62.40;;;;;;4997266;28;20012;-59
2022/04/16 05:51:16;;;;;;;;;;;15.30;62.20;;;;;;4995832;28;19910;-59
2022/04/16 05:53:42;;;;;;;;;;;15.40;61.80;;;;;;4996915;28;19910;-59
2022/04/16 05:56:08;;;;;;;;;;;15.40;61.70;;;;;;4997173;28;19929;-59
2022/04/16 05:58:34;;;;;;;;;;;15.40;62.20;;;;;;4997073;28;20273;-59
2022/04/16 06:00:59;;;;;;;;;;;15.50;61.10;;;;;;4997045;28;19910;-58
2022/04/16 06:03:25;;;;;;;;;;;15.50;60.90;;;;;;4996746;28;19909;-64
2022/04/16 06:05:52;;;;;;;;;;;15.90;61.00;;;;;;4996952;28;19953;-61
2022/04/16 06:08:18;;;;;;;;;;;16.20;60.00;;;;;;4996619;28;19921;-65
2022/04/16 06:10:44;;;;;;;;;;;16.50;58.80;;;;;;4996832;28;19910;-63
2022/04/16 06:13:09;;;;;;;;;;;16.70;57.90;;;;;;4996509;28;19956;-62
2022/04/16 06:15:35;;;;;;;;;;;17.00;57.10;;;;;;4996816;28;19910;-61
2022/04/16 06:18:00;;;;;;;;;;;17.00;56.80;;;;;;4996692;28;19922;-64
2022/04/16 06:20:26;;;;;;;;;;;17.20;56.60;;;;;;4996459;28;19964;-63
2022/04/16 06:22:52;;;;;;;;;;;17.20;55.90;;;;;;4996307;28;19926;-62
2022/04/16 06:25:18;;;;;;;;;;;17.40;56.10;;;;;;4995935;28;19909;-63
2022/04/16 06:27:43;;;;;;;;;;;17.50;55.80;;;;;;4994840;28;20263;-62
2022/04/16 06:30:09;;;;;;;;;;;17.70;55.70;;;;;;4996143;28;19914;-63
2022/04/16 06:32:36;;;;;;;;;;;17.90;55.10;;;;;;4996145;28;19953;-62
2022/04/16 06:35:05;;;;;;;;;;;18.00;54.00;;;;;;4996395;28;20019;-63
2022/04/16 06:37:31;;;;;;;;;;;18.00;54.50;;;;;;4996366;28;19921;-63
2022/04/16 06:39:57;;;;;;;;;;;18.10;53.30;;;;;;4996171;28;19913;-64
2022/04/16 06:42:22;;;;;;;;;;;18.10;53.90;;;;;;4996082;28;19917;-70
2022/04/16 06:44:48;;;;;;;;;;;18.20;54.30;;;;;;4995520;28;19964;-64
2022/04/16 06:47:13;;;;;;;;;;;18.40;53.60;;;;;;4995936;28;20362;-66
2022/04/16 06:49:39;;;;;;;;;;;18.60;53.40;;;;;;4994780;28;20281;-63
2022/04/16 06:52:05;;;;;;;;;;;18.80;52.80;;;;;;4995752;28;19934;-65
2022/04/16 06:54:30;;;;;;;;;;;18.70;52.30;;;;;;4995820;28;20448;-65
2022/04/16 06:56:56;;;;;;;;;;;18.80;52.10;;;;;;4995873;28;19910;-63
2022/04/16 06:59:21;;;;;;;;;;;18.60;51.80;;;;;;4996087;28;19953;-64
2022/04/16 07:01:47;;;;;;;;;;;18.50;52.30;;;;;;4995581;28;19909;-64
2022/04/16 07:04:12;;;;;;;;;;;18.50;52.60;;;;;;4995518;28;19909;-64
2022/04/16 07:06:39;;;;;;;;;;;18.50;53.10;;;;;;4994785;28;19920;-64
2022/04/16 07:09:05;;;;;;;;;;;18.50;53.30;;;;;;4992777;28;19926;-62
2022/04/16 07:11:30;;;;;;;;;;;18.60;52.60;;;;;;4993550;28;20381;-61
2022/04/16 07:13:56;;;;;;;;;;;18.50;52.30;;;;;;4994722;28;19910;-61
2022/04/16 07:16:21;;;;;;;;;;;18.40;52.60;;;;;;4994711;28;20472;-63
2022/04/16 07:18:47;;;;;;;;;;;18.40;52.30;;;;;;4986864;28;20325;-62
2022/04/16 07:21:12;;;;;;;;;;;18.30;52.70;;;;;;4978198;28;19910;-63
2022/04/16 07:23:38;;;;;;;;;;;18.30;52.70;;;;;;4976697;28;19914;-62
2022/04/16 07:26:03;;;;;;;;;;;17.90;52.40;;;;;;4977826;28;19914;-63
2022/04/16 07:28:29;;;;;;;;;;;18.10;53.20;;;;;;4990404;28;19922;-61
2022/04/16 07:30:54;;;;;;;;;;;18.20;52.70;;;;;;4986692;28;19911;-61
2022/04/16 07:33:20;;;;;;;;;;;18.30;52.60;;;;;;4984311;28;19910;-62
2022/04/16 07:35:45;;;;;;;;;;;18.40;52.30;;;;;;4985984;28;19910;-61
2022/04/16 07:38:11;;;;;;;;;;;18.40;52.50;;;;;;4982563;28;19921;-61
2022/04/16 07:40:37;;;;;;;;;;;18.40;52.10;;;;;;4994882;28;19917;-60
2022/04/16 07:43:03;;;;;;;;;;;18.40;52.50;;;;;;4994257;28;19909;-61
2022/04/16 07:45:28;;;;;;;;;;;18.50;51.80;;;;;;4991828;28;19914;-59
2022/04/16 07:47:54;;;;;;;;;;;18.50;52.40;;;;;;4994602;28;19930;-61
2022/04/16 07:50:20;;;;;;;;;;;18.40;52.20;;;;;;4994338;28;19921;-66
2022/04/16 07:52:46;;;;;;;;;;;18.40;51.60;;;;;;4994937;28;19910;-60
2022/04/16 07:55:11;;;;;;;;;;;18.60;51.50;;;;;;4994466;28;19945;-62
2022/04/16 07:57:37;;;;;;;;;;;18.70;51.50;;;;;;4994491;28;19914;-61
2022/04/16 08:00:04;;;;;;;;;;;18.60;51.70;;;;;;4994996;28;19910;-61
2022/04/16 08:02:29;;;;;;;;;;;18.80;51.60;;;;;;4995144;28;20393;-61
2022/04/16 08:04:55;;;;;;;;;;;19.00;51.20;;;;;;4994723;28;19910;-69
2022/04/16 08:07:20;;;;;;;;;;;18.90;50.40;;;;;;4994149;28;19941;-66
2022/04/16 08:09:46;;;;;;;;;;;19.10;50.20;;;;;;4995878;28;19960;-64
2022/04/16 08:12:11;;;;;;;;;;;19.20;50.10;;;;;;4997187;28;19910;-63
2022/04/16 08:14:37;;;;;;;;;;;19.10;48.70;;;;;;4987990;28;19916;-67
2022/04/16 08:17:02;;;;;;;;;;;18.90;48.70;;;;;;4980274;28;19916;-62
2022/04/16 08:19:29;;;;;;;;;;;18.90;49.30;;;;;;4974801;28;19957;-61
2022/04/16 08:21:55;;;;;;;;;;;19.00;48.60;;;;;;4980165;28;19914;-62
2022/04/16 08:26:52;;;;;;;;;;;19.10;48.90;;;;;;4994170;28;19957;-62
2022/04/16 08:29:17;;;;;;;;;;;19.10;48.50;;;;;;4994192;28;19957;-61
2022/04/16 08:31:43;;;;;;;;;;;19.10;48.10;;;;;;4993690;28;19921;-61
2022/04/16 08:34:09;;;;;;;;;;;19.20;47.60;;;;;;4993509;28;19996;-62
2022/04/16 08:36:36;;;;;;;;;;;19.20;47.60;;;;;;4993609;28;20277;-62
2022/04/16 08:39:02;;;;;;;;;;;19.10;47.90;;;;;;4993866;28;20338;-63
2022/04/16 08:41:28;;;;;;;;;;;19.10;47.60;;;;;;4994742;28;20000;-62
2022/04/16 08:43:56;;;;;;;;;;;19.10;47.00;;;;;;4993794;28;19990;-63
2022/04/16 08:46:22;;;;;;;;;;;19.20;46.50;;;;;;4994394;28;20017;-62
2022/04/16 08:48:48;;;;;;;;;;;19.30;46.30;;;;;;4994375;28;19918;-66
2022/04/16 08:51:15;;;;;;;;;;;19.30;45.80;;;;;;4994476;28;20322;-65
2022/04/16 08:53:41;;;;;;;;;;;19.20;45.70;;;;;;4994114;28;19918;-64
2022/04/16 08:56:07;;;;;;;;;;;19.30;45.20;;;;;;4994255;28;19910;-63
2022/04/16 08:58:32;;;;;;;;;;;19.20;44.80;;;;;;4994091;28;19964;-64
2022/04/16 09:00:59;;;;;;;;;;;19.30;44.60;;;;;;4993436;28;19969;-61
2022/04/16 09:03:38;;;;;;;;;;;19.30;44.50;;;;;;4993177;28;19918;-62
2022/04/16 09:06:04;;;;;;;;;;;19.20;44.00;;;;;;4993126;28;20362;-62
2022/04/16 09:08:30;;;;;;;;;;;19.30;44.60;;;;;;4997831;28;19925;-61
2022/04/16 09:11:10;;;;;;;;;;;19.40;44.00;;;;;;4997807;28;20346;-64
2022/04/16 09:13:39;;;;;;;;;;;19.40;43.40;;;;;;4997822;28;19964;-62
2022/04/16 09:16:05;;;;;;;;;;;19.30;43.60;;;;;;4998092;28;19910;-61
2022/04/16 09:18:32;;;;;;;;;;;19.30;43.60;;;;;;4997480;28;19921;-64
2022/04/16 09:20:58;;;;;;;;;;;19.50;43.80;;;;;;4997882;28;19910;-61
2022/04/16 09:23:24;;;;;;;;;;;19.60;43.60;;;;;;4997141;28;19921;-60
2022/04/16 09:25:50;;;;;;;;;;;19.40;42.80;;;;;;4996930;28;20358;-62
2022/04/16 09:28:20;;;;;;;;;;;19.40;43.20;;;;;;4996564;28;19918;-63
2022/04/16 09:30:49;;;;;;;;;;;19.40;42.40;;;;;;4996916;28;19910;-62
2022/04/16 09:33:14;;;;;;;;;;;19.30;43.20;;;;;;4997349;28;19997;-62
2022/04/16 09:35:40;;;;;;;;;;;19.20;43.20;;;;;;4997098;28;20017;-63
2022/04/16 09:38:08;;;;;;;;;;;19.20;43.60;;;;;;4997337;28;19964;-64
2022/04/16 09:40:34;;;;;;;;;;;19.20;43.20;;;;;;4997181;28;19945;-62
2022/04/16 09:43:01;;;;;;;;;;;19.20;43.60;;;;;;4997111;28;19910;-62
2022/04/16 09:45:28;;;;;;;;;;;19.10;43.70;;;;;;4997217;28;19917;-64
2022/04/16 09:47:54;;;;;;;;;;;19.20;43.80;;;;;;4996955;28;19918;-63
2022/04/16 09:50:20;;;;;;;;;;;19.20;43.20;;;;;;4997254;28;19955;-63
2022/04/16 09:52:59;;;;;;;;;;;19.20;42.60;;;;;;4997267;28;19945;-62
2022/04/16 09:55:25;;;;;;;;;;;19.10;43.80;;;;;;4996997;28;20427;-63
2022/04/16 09:57:53;;;;;;;;;;;19.00;43.50;;;;;;4997325;28;19964;-62
2022/04/16 10:00:18;;;;;;;;;;;18.90;44.10;;;;;;4996852;28;20020;-62
2022/04/16 10:02:44;;;;;;;;;;;19.10;44.20;;;;;;4997203;28;20362;-62
2022/04/16 10:05:10;;;;;;;;;;;18.90;43.50;;;;;;4997165;28;20394;-63
2022/04/16 10:07:36;;;;;;;;;;;18.90;44.30;;;;;;4996882;28;19910;-62
2022/04/16 10:10:06;;;;;;;;;;;19.10;44.00;;;;;;4997108;28;19909;-63
2022/04/16 10:15:20;;;;;;;;;;;19.30;42.90;;;;;;5005296;28;19948;-62
2022/04/16 10:17:49;;;;;;;;;;;19.40;42.50;;;;;;5002839;28;19921;-62
2022/04/16 10:20:19;;;;;;;;;;;19.40;41.90;;;;;;5000142;28;19948;-62
2022/04/16 10:22:54;;;;;;;;;;;19.40;42.80;;;;;;4999893;28;20331;-62
2022/04/16 10:25:32;;;;;;;;;;;19.50;42.30;;;;;;5001418;28;19937;-64
2022/04/16 10:28:07;;;;;;;;;;;19.50;42.20;;;;;;4996802;28;19969;-61
2022/04/16 10:30:40;;;;;;;;;;;19.70;42.30;;;;;;4996977;28;19910;-60
2022/04/16 10:33:19;;;;;;;;;;;19.80;41.40;;;;;;4996347;28;19914;-60
2022/04/16 10:35:52;;;;;;;;;;;19.70;41.20;;;;;;4996334;28;19909;-61
2022/04/16 10:38:25;;;;;;;;;;;19.70;41.90;;;;;;4996406;28;19913;-61
2022/04/16 10:40:54;;;;;;;;;;;19.70;41.40;;;;;;4996453;28;19910;-62
2022/04/16 10:43:25;;;;;;;;;;;19.60;41.10;;;;;;4995915;28;19993;-64
2022/04/16 10:45:59;;;;;;;;;;;19.70;41.60;;;;;;4996226;28;20420;-63
2022/04/16 10:48:27;;;;;;;;;;;19.90;40.20;;;;;;4995862;28;19987;-70
2022/04/16 10:50:52;;;;;;;;;;;20.20;40.70;;;;;;4995272;28;19968;-66
2022/04/16 10:53:25;;;;;;;;;;;20.30;40.20;;;;;;4984583;28;19910;-67
2022/04/16 10:55:51;;;;;;;;;;;20.30;39.30;;;;;;4995246;28;19917;-64
2022/04/16 10:58:26;;;;;;;;;;;20.40;40.20;;;;;;4991043;28;20346;-63
2022/04/16 11:00:51;;;;;;;;;;;20.60;38.50;;;;;;4994679;28;19910;-65
2022/04/16 11:03:33;;;;;;;;;;;20.80;41.10;;;;;;4994601;28;19917;-62
2022/04/16 11:06:07;;;;;;;;;;;20.90;39.30;;;;;;4994630;28;20020;-65
2022/04/16 11:08:37;;;;;;;;;;;21.00;38.60;;;;;;4994327;28;20358;-63
2022/04/16 11:11:03;;;;;;;;;;;21.00;39.90;;;;;;4994645;28;19953;-66
2022/04/16 11:13:29;;;;;;;;;;;20.90;37.00;;;;;;4995156;28;20281;-66
2022/04/16 11:15:56;;;;;;;;;;;20.80;36.60;;;;;;4995221;28;19917;-63
2022/04/16 11:18:21;;;;;;;;;;;20.80;36.80;;;;;;4995047;28;20297;-64
2022/04/16 11:20:55;;;;;;;;;;;20.80;36.90;;;;;;4994865;28;19910;-65
2022/04/16 11:23:24;;;;;;;;;;;21.00;36.00;;;;;;4995149;28;19910;-64
2022/04/16 11:34:20;;;;;;;;;;;20.90;33.10;;;;;;4995103;28;19917;-64
2022/04/16 11:36:52;;;;;;;;;;;21.00;33.60;;;;;;4994623;28;19957;-63
2022/04/16 11:39:24;;;;;;;;;;;21.00;33.80;;;;;;4994503;28;20036;-64
2022/04/16 11:41:51;;;;;;;;;;;21.00;32.20;;;;;;4994238;28;19918;-63
2022/04/16 11:44:17;;;;;;;;;;;20.80;32.40;;;;;;4994752;28;20277;-60
2022/04/16 11:46:42;;;;;;;;;;;20.90;32.70;;;;;;4993956;28;20017;-64
2022/04/16 11:49:09;;;;;;;;;;;21.00;32.80;;;;;;4990760;28;19922;-66
2022/04/16 11:51:38;;;;;;;;;;;21.00;33.00;;;;;;4993290;28;19932;-65
2022/04/16 11:54:04;;;;;;;;;;;21.00;33.90;;;;;;4993100;28;20369;-66
2022/04/16 11:56:30;;;;;;;;;;;21.00;33.30;;;;;;4993402;28;20336;-65
2022/04/16 11:58:55;;;;;;;;;;;21.20;33.50;;;;;;4993449;28;20009;-64
2022/04/16 12:01:21;;;;;;;;;;;21.30;33.40;;;;;;4993471;28;19969;-66
2022/04/16 12:03:48;;;;;;;;;;;21.50;33.60;;;;;;4993627;28;19965;-71
2022/04/16 12:06:14;;;;;;;;;;;21.30;33.30;;;;;;4993192;28;19917;-66
2022/04/16 12:08:40;;;;;;;;;;;21.00;34.00;;;;;;4992536;28;20012;-66
2022/04/16 12:11:05;;;;;;;;;;;21.10;33.90;;;;;;4992733;28;19992;-67
2022/04/16 12:13:37;;;;;;;;;;;21.00;34.70;;;;;;4992820;28;19964;-65
2022/04/16 12:16:07;;;;;;;;;;;21.00;33.60;;;;;;4992917;28;19909;-68
2022/04/16 12:18:46;;;;;;;;;;;20.80;33.50;;;;;;4992712;28;20386;-67
2022/04/16 12:21:13;;;;;;;;;;;20.90;34.00;;;;;;4992794;28;20381;-69
2022/04/16 12:23:40;;;;;;;;;;;20.90;33.80;;;;;;4992649;28;19941;-66
2022/04/16 12:26:07;;;;;;;;;;;21.00;34.30;;;;;;4991479;28;19950;-67
2022/04/16 12:28:33;;;;;;;;;;;21.20;33.20;;;;;;4992803;28;19918;-68
2022/04/16 12:30:59;;;;;;;;;;;21.20;33.80;;;;;;4989670;28;19996;-67
2022/04/16 12:33:27;;;;;;;;;;;21.40;34.20;;;;;;4992601;28;19957;-68
2022/04/16 12:35:56;;;;;;;;;;;21.60;33.10;;;;;;4992272;28;20008;-68
2022/04/16 12:38:22;;;;;;;;;;;21.60;31.90;;;;;;4992034;28;19916;-67
2022/04/16 12:40:47;;;;;;;;;;;21.30;32.20;;;;;;4993658;28;19913;-68
2022/04/16 12:43:15;;;;;;;;;;;21.20;32.90;;;;;;4996648;28;19964;-68
2022/04/16 12:45:40;;;;;;;;;;;21.40;34.80;;;;;;4996881;28;19957;-68
2022/04/16 12:48:06;;;;;;;;;;;21.40;34.10;;;;;;4993793;28;19968;-68
2022/04/16 12:50:33;;;;;;;;;;;21.30;35.40;;;;;;4996572;28;19945;-68
2022/04/16 12:53:03;;;;;;;;;;;21.00;35.20;;;;;;4996999;28;20318;-71
2022/04/16 12:55:29;;;;;;;;;;;20.70;35.50;;;;;;4997266;28;19914;-66
2022/04/16 12:57:55;;;;;;;;;;;20.80;35.80;;;;;;4997048;28;19933;-67
2022/04/16 13:00:21;;;;;;;;;;;20.60;34.90;;;;;;4988326;28;19910;-65
2022/04/16 13:02:46;;;;;;;;;;;20.50;35.50;;;;;;4987939;28;20286;-63
2022/04/16 13:05:13;;;;;;;;;;;20.50;35.40;;;;;;4996860;28;19953;-69
2022/04/16 13:07:39;;;;;;;;;;;20.40;35.20;;;;;;4996989;28;19936;-66
2022/04/16 13:10:06;;;;;;;;;;;20.30;34.80;;;;;;4996957;28;20449;-66
2022/04/16 13:12:32;;;;;;;;;;;20.20;34.20;;;;;;4996572;28;19930;-63
2022/04/16 13:14:58;;;;;;;;;;;20.10;34.60;;;;;;4996892;28;19917;-72
2022/04/16 13:17:23;;;;;;;;;;;20.00;35.00;;;;;;4996553;28;19914;-68
2022/04/16 13:19:50;;;;;;;;;;;20.00;35.90;;;;;;4995174;28;20378;-67
2022/04/16 13:22:15;;;;;;;;;;;20.20;36.40;;;;;;4991755;28;19916;-67
2022/04/16 13:24:41;;;;;;;;;;;20.30;35.60;;;;;;4991366;28;19910;-67
2022/04/16 13:27:06;;;;;;;;;;;20.30;34.80;;;;;;4981459;28;19914;-70
2022/04/16 13:29:32;;;;;;;;;;;20.20;34.10;;;;;;4980097;28;19925;-69
2022/04/16 13:31:59;;;;;;;;;;;20.30;34.20;;;;;;4986289;28;20376;-69
2022/04/16 13:34:24;;;;;;;;;;;20.50;35.70;;;;;;4986389;28;19918;-69
2022/04/16 13:36:50;;;;;;;;;;;20.70;35.80;;;;;;4986385;28;19921;-68
2022/04/16 13:42:00;;;;;;;;;;;20.80;35.40;;;;;;4996529;28;19964;-67
2022/04/16 13:44:26;;;;;;;;;;;21.00;35.90;;;;;;4988327;28;19914;-67
2022/04/16 13:46:51;;;;;;;;;;;20.80;35.40;;;;;;4986477;28;19914;-67
2022/04/16 13:49:17;;;;;;;;;;;20.90;35.90;;;;;;4990843;28;19934;-67
2022/04/16 13:51:43;;;;;;;;;;;20.90;34.40;;;;;;5002164;28;19941;-66
2022/04/16 13:54:10;;;;;;;;;;;20.60;35.00;;;;;;5001025;28;19942;-68
2022/04/16 13:56:35;;;;;;;;;;;20.30;35.10;;;;;;5000247;28;19985;-66
2022/04/16 13:59:01;;;;;;;;;;;20.40;35.20;;;;;;4991282;28;20307;-66
2022/04/16 14:01:26;;;;;;;;;;;20.20;35.50;;;;;;4993522;28;19921;-65
2022/04/16 14:03:53;;;;;;;;;;;20.30;35.60;;;;;;4996342;28;20263;-65
2022/04/16 14:06:19;;;;;;;;;;;20.10;35.50;;;;;;4996669;28;19972;-67
2022/04/16 14:08:45;;;;;;;;;;;20.30;36.70;;;;;;4996154;28;20016;-66
2022/04/16 14:11:11;;;;;;;;;;;20.20;35.40;;;;;;4995992;28;20000;-67
2022/04/16 14:13:37;;;;;;;;;;;20.20;35.60;;;;;;4996165;28;19914;-66
2022/04/16 14:16:04;;;;;;;;;;;20.10;35.90;;;;;;4995997;28;20393;-67
2022/04/16 14:18:30;;;;;;;;;;;19.90;35.60;;;;;;4996134;28;19972;-68
2022/04/16 14:20:56;;;;;;;;;;;19.50;36.30;;;;;;4995859;28;20369;-68
2022/04/16 14:23:22;;;;;;;;;;;19.50;36.80;;;;;;4996186;28;19910;-68
2022/04/16 14:25:48;;;;;;;;;;;19.50;36.90;;;;;;4996011;28;19941;-66
2022/04/16 14:28:14;;;;;;;;;;;19.60;35.80;;;;;;4995891;28;19922;-66
2022/04/16 14:30:40;;;;;;;;;;;19.50;35.40;;;;;;4995610;28;19914;-68
2022/04/16 14:33:05;;;;;;;;;;;19.30;35.90;;;;;;4985365;28;19993;-68
2022/04/16 14:35:32;;;;;;;;;;;19.30;36.10;;;;;;4986913;28;19910;-67
2022/04/16 14:37:57;;;;;;;;;;;19.40;36.70;;;;;;4985369;28;19910;-70
2022/04/16 14:40:23;;;;;;;;;;;19.50;36.20;;;;;;4996283;28;19957;-68
2022/04/16 14:42:52;;;;;;;;;;;19.40;36.60;;;;;;4996084;28;19914;-69
2022/04/16 14:45:20;;;;;;;;;;;19.20;36.60;;;;;;4996038;28;19917;-66